sensor_id;sensor_type;location;lat;lon;timestamp;temperature;humidity
16970;DHT22;8601;48.718;8.992;2022-08-25T00:00:59;20.60;86.50
16970;DHT22;8601;48.718;8.992;2022-08-25T00:03:26;20.60;86.90
16970;DHT22;8601;48.718;8.992;2022-08-25T00:05:53;20.60;87.10
16970;DHT22;8601;48.718;8.992;2022-08-25T00:08:20;20.60;87.20
16970;DHT22;8601;48.718;8.992;2022-08-25T00:10:47;20.50;87.10
16970;DHT22;8601;48.718;8.992;2022-08-25T00:13:16;20.50;87.40
16970;DHT22;8601;48.718;8.992;2022-08-25T00:15:43;20.50;87.60
16970;DHT22;8601;48.718;8.992;2022-08-25T00:18:12;20.40;87.80
16970;DHT22;8601;48.718;8.992;2022-08-25T00:20:39;20.40;88.20
16970;DHT22;8601;48.718;8.992;2022-08-25T00:23:06;20.40;88.50
16970;DHT22;8601;48.718;8.992;2022-08-25T00:25:33;20.40;88.60
16970;DHT22;8601;48.718;8.992;2022-08-25T00:28:00;20.40;88.80
16970;DHT22;8601;48.718;8.992;2022-08-25T00:30:28;20.30;88.90
16970;DHT22;8601;48.718;8.992;2022-08-25T00:32:55;20.30;89.20
16970;DHT22;8601;48.718;8.992;2022-08-25T00:35:23;20.30;89.50
16970;DHT22;8601;48.718;8.992;2022-08-25T00:37:50;20.30;89.60
16970;DHT22;8601;48.718;8.992;2022-08-25T00:40:17;20.30;89.70
16970;DHT22;8601;48.718;8.992;2022-08-25T00:42:44;20.30;89.70
16970;DHT22;8601;48.718;8.992;2022-08-25T00:45:11;20.30;90.00
16970;DHT22;8601;48.718;8.992;2022-08-25T00:47:40;20.30;90.00
16970;DHT22;8601;48.718;8.992;2022-08-25T00:50:08;20.20;90.00
16970;DHT22;8601;48.718;8.992;2022-08-25T00:52:38;20.20;90.10
16970;DHT22;8601;48.718;8.992;2022-08-25T00:55:10;20.20;90.30
16970;DHT22;8601;48.718;8.992;2022-08-25T00:57:42;20.10;90.40
16970;DHT22;8601;48.718;8.992;2022-08-25T01:00:14;20.10;90.50
16970;DHT22;8601;48.718;8.992;2022-08-25T01:02:45;20.10;90.60
16970;DHT22;8601;48.718;8.992;2022-08-25T01:05:12;20.10;90.50
16970;DHT22;8601;48.718;8.992;2022-08-25T01:07:41;20.00;90.80
16970;DHT22;8601;48.718;8.992;2022-08-25T01:10:09;19.90;91.20
16970;DHT22;8601;48.718;8.992;2022-08-25T01:12:38;19.80;91.00
16970;DHT22;8601;48.718;8.992;2022-08-25T01:15:08;19.80;91.20
16970;DHT22;8601;48.718;8.992;2022-08-25T01:17:46;19.80;91.40
16970;DHT22;8601;48.718;8.992;2022-08-25T01:20:14;19.70;91.30
16970;DHT22;8601;48.718;8.992;2022-08-25T01:22:42;19.70;91.30
16970;DHT22;8601;48.718;8.992;2022-08-25T01:25:21;19.70;91.50
16970;DHT22;8601;48.718;8.992;2022-08-25T01:27:49;19.70;91.70
16970;DHT22;8601;48.718;8.992;2022-08-25T01:30:16;19.70;91.70
16970;DHT22;8601;48.718;8.992;2022-08-25T01:32:43;19.50;91.80
16970;DHT22;8601;48.718;8.992;2022-08-25T01:35:11;19.50;92.10
16970;DHT22;8601;48.718;8.992;2022-08-25T01:37:39;19.40;92.30
16970;DHT22;8601;48.718;8.992;2022-08-25T01:40:08;19.50;92.50
16970;DHT22;8601;48.718;8.992;2022-08-25T01:42:46;19.50;92.50
16970;DHT22;8601;48.718;8.992;2022-08-25T01:45:18;19.50;92.50
16970;DHT22;8601;48.718;8.992;2022-08-25T01:47:45;19.40;92.80
16970;DHT22;8601;48.718;8.992;2022-08-25T01:50:12;19.40;92.90
16970;DHT22;8601;48.718;8.992;2022-08-25T01:52:47;19.40;93.00
16970;DHT22;8601;48.718;8.992;2022-08-25T01:55:17;19.30;93.20
16970;DHT22;8601;48.718;8.992;2022-08-25T01:57:44;19.20;93.40
16970;DHT22;8601;48.718;8.992;2022-08-25T02:00:12;19.20;93.60
16970;DHT22;8601;48.718;8.992;2022-08-25T02:02:40;19.10;94.00
16970;DHT22;8601;48.718;8.992;2022-08-25T02:05:08;19.10;94.30
16970;DHT22;8601;48.718;8.992;2022-08-25T02:07:36;19.00;94.40
16970;DHT22;8601;48.718;8.992;2022-08-25T02:10:05;19.00;94.60
16970;DHT22;8601;48.718;8.992;2022-08-25T02:12:33;19.00;94.90
16970;DHT22;8601;48.718;8.992;2022-08-25T02:15:02;19.00;95.00
16970;DHT22;8601;48.718;8.992;2022-08-25T02:17:30;19.00;94.90
16970;DHT22;8601;48.718;8.992;2022-08-25T02:19:57;19.00;94.90
16970;DHT22;8601;48.718;8.992;2022-08-25T02:22:24;19.00;95.10
16970;DHT22;8601;48.718;8.992;2022-08-25T02:24:51;19.00;95.10
16970;DHT22;8601;48.718;8.992;2022-08-25T02:27:18;19.00;95.20
16970;DHT22;8601;48.718;8.992;2022-08-25T02:29:46;19.00;95.20
16970;DHT22;8601;48.718;8.992;2022-08-25T02:32:13;18.90;95.30
16970;DHT22;8601;48.718;8.992;2022-08-25T02:34:40;18.90;95.40
16970;DHT22;8601;48.718;8.992;2022-08-25T02:37:08;18.90;95.70
16970;DHT22;8601;48.718;8.992;2022-08-25T02:39:35;18.80;95.90
16970;DHT22;8601;48.718;8.992;2022-08-25T02:42:02;18.80;96.30
16970;DHT22;8601;48.718;8.992;2022-08-25T02:44:29;18.80;96.60
16970;DHT22;8601;48.718;8.992;2022-08-25T02:46:58;18.70;96.80
16970;DHT22;8601;48.718;8.992;2022-08-25T02:49:25;18.70;97.20
16970;DHT22;8601;48.718;8.992;2022-08-25T02:51:52;18.60;97.50
16970;DHT22;8601;48.718;8.992;2022-08-25T02:54:19;18.60;97.70
16970;DHT22;8601;48.718;8.992;2022-08-25T02:56:48;18.50;97.70
16970;DHT22;8601;48.718;8.992;2022-08-25T02:59:15;18.50;98.00
16970;DHT22;8601;48.718;8.992;2022-08-25T03:01:44;18.50;98.20
16970;DHT22;8601;48.718;8.992;2022-08-25T03:04:13;18.50;98.60
16970;DHT22;8601;48.718;8.992;2022-08-25T03:06:39;18.50;98.50
16970;DHT22;8601;48.718;8.992;2022-08-25T03:09:07;18.50;98.40
16970;DHT22;8601;48.718;8.992;2022-08-25T03:11:34;18.40;98.40
16970;DHT22;8601;48.718;8.992;2022-08-25T03:14:03;18.40;98.60
16970;DHT22;8601;48.718;8.992;2022-08-25T03:16:30;18.40;98.50
16970;DHT22;8601;48.718;8.992;2022-08-25T03:18:58;18.40;98.80
16970;DHT22;8601;48.718;8.992;2022-08-25T03:21:27;18.30;99.20
16970;DHT22;8601;48.718;8.992;2022-08-25T03:23:55;18.30;99.70
16970;DHT22;8601;48.718;8.992;2022-08-25T03:26:22;18.30;99.80
16970;DHT22;8601;48.718;8.992;2022-08-25T03:29:07;18.30;99.90
16970;DHT22;8601;48.718;8.992;2022-08-25T03:31:35;18.30;99.90
16970;DHT22;8601;48.718;8.992;2022-08-25T03:34:03;18.30;99.90
16970;DHT22;8601;48.718;8.992;2022-08-25T03:36:32;18.30;99.90
16970;DHT22;8601;48.718;8.992;2022-08-25T03:38:59;18.30;99.90
16970;DHT22;8601;48.718;8.992;2022-08-25T03:41:28;18.30;99.90
16970;DHT22;8601;48.718;8.992;2022-08-25T03:43:58;18.10;99.90
16970;DHT22;8601;48.718;8.992;2022-08-25T03:46:27;18.00;99.90
16970;DHT22;8601;48.718;8.992;2022-08-25T03:48:55;17.90;99.90
16970;DHT22;8601;48.718;8.992;2022-08-25T03:51:25;17.90;99.90
16970;DHT22;8601;48.718;8.992;2022-08-25T03:53:54;17.90;99.90
16970;DHT22;8601;48.718;8.992;2022-08-25T03:56:22;17.90;99.90
16970;DHT22;8601;48.718;8.992;2022-08-25T03:58:49;17.90;99.90
16970;DHT22;8601;48.718;8.992;2022-08-25T04:01:17;17.90;99.90
16970;DHT22;8601;48.718;8.992;2022-08-25T04:03:44;17.90;99.90
16970;DHT22;8601;48.718;8.992;2022-08-25T04:06:12;17.90;99.90
16970;DHT22;8601;48.718;8.992;2022-08-25T04:08:39;17.90;99.90
16970;DHT22;8601;48.718;8.992;2022-08-25T04:11:10;17.90;99.90
16970;DHT22;8601;48.718;8.992;2022-08-25T04:13:38;17.80;99.90
16970;DHT22;8601;48.718;8.992;2022-08-25T04:16:10;17.90;99.90
16970;DHT22;8601;48.718;8.992;2022-08-25T04:18:38;17.70;99.90
16970;DHT22;8601;48.718;8.992;2022-08-25T04:21:06;17.70;99.90
16970;DHT22;8601;48.718;8.992;2022-08-25T04:23:34;17.80;99.90
16970;DHT22;8601;48.718;8.992;2022-08-25T04:26:02;17.80;99.90
16970;DHT22;8601;48.718;8.992;2022-08-25T04:28:34;17.70;99.90
16970;DHT22;8601;48.718;8.992;2022-08-25T04:31:05;17.80;99.90
16970;DHT22;8601;48.718;8.992;2022-08-25T04:33:32;17.70;99.90
16970;DHT22;8601;48.718;8.992;2022-08-25T04:35:59;17.80;99.90
16970;DHT22;8601;48.718;8.992;2022-08-25T04:38:26;17.70;99.90
16970;DHT22;8601;48.718;8.992;2022-08-25T04:40:56;17.70;99.90
16970;DHT22;8601;48.718;8.992;2022-08-25T04:43:23;17.70;99.90
16970;DHT22;8601;48.718;8.992;2022-08-25T04:45:52;17.60;99.90
16970;DHT22;8601;48.718;8.992;2022-08-25T04:48:20;17.60;99.90
16970;DHT22;8601;48.718;8.992;2022-08-25T04:50:47;17.60;99.90
16970;DHT22;8601;48.718;8.992;2022-08-25T04:53:14;17.60;99.90
16970;DHT22;8601;48.718;8.992;2022-08-25T04:55:42;17.60;99.90
16970;DHT22;8601;48.718;8.992;2022-08-25T04:58:10;17.50;99.90
16970;DHT22;8601;48.718;8.992;2022-08-25T05:00:37;17.50;99.90
16970;DHT22;8601;48.718;8.992;2022-08-25T05:03:06;17.50;99.90
16970;DHT22;8601;48.718;8.992;2022-08-25T05:05:35;17.60;99.90
16970;DHT22;8601;48.718;8.992;2022-08-25T05:08:03;17.60;99.90
16970;DHT22;8601;48.718;8.992;2022-08-25T05:10:31;17.60;99.90
16970;DHT22;8601;48.718;8.992;2022-08-25T05:12:58;17.60;99.90
16970;DHT22;8601;48.718;8.992;2022-08-25T05:15:26;17.50;99.90
16970;DHT22;8601;48.718;8.992;2022-08-25T05:18:11;17.50;99.90
16970;DHT22;8601;48.718;8.992;2022-08-25T05:20:38;17.50;99.90
16970;DHT22;8601;48.718;8.992;2022-08-25T05:23:05;17.50;99.90
16970;DHT22;8601;48.718;8.992;2022-08-25T05:25:32;17.50;99.90
16970;DHT22;8601;48.718;8.992;2022-08-25T05:27:59;17.50;99.90
16970;DHT22;8601;48.718;8.992;2022-08-25T05:30:27;17.50;99.90
16970;DHT22;8601;48.718;8.992;2022-08-25T05:32:53;17.60;99.90
16970;DHT22;8601;48.718;8.992;2022-08-25T05:35:22;17.60;99.90
16970;DHT22;8601;48.718;8.992;2022-08-25T05:37:49;17.70;99.90
16970;DHT22;8601;48.718;8.992;2022-08-25T05:40:16;18.10;99.90
16970;DHT22;8601;48.718;8.992;2022-08-25T05:42:43;18.40;99.90
16970;DHT22;8601;48.718;8.992;2022-08-25T05:45:10;18.30;99.90
16970;DHT22;8601;48.718;8.992;2022-08-25T05:47:38;18.20;99.90
16970;DHT22;8601;48.718;8.992;2022-08-25T05:50:06;18.20;99.90
16970;DHT22;8601;48.718;8.992;2022-08-25T05:52:35;18.10;99.90
16970;DHT22;8601;48.718;8.992;2022-08-25T05:55:02;18.10;99.90
16970;DHT22;8601;48.718;8.992;2022-08-25T05:57:29;18.10;99.90
16970;DHT22;8601;48.718;8.992;2022-08-25T05:59:56;18.10;99.90
16970;DHT22;8601;48.718;8.992;2022-08-25T06:02:23;18.00;99.90
16970;DHT22;8601;48.718;8.992;2022-08-25T06:05:12;18.00;99.90
16970;DHT22;8601;48.718;8.992;2022-08-25T06:07:41;18.10;99.90
16970;DHT22;8601;48.718;8.992;2022-08-25T06:10:09;18.00;99.90
16970;DHT22;8601;48.718;8.992;2022-08-25T06:12:39;18.00;99.90
16970;DHT22;8601;48.718;8.992;2022-08-25T06:15:10;18.00;99.90
16970;DHT22;8601;48.718;8.992;2022-08-25T06:17:37;18.00;99.90
16970;DHT22;8601;48.718;8.992;2022-08-25T06:20:07;18.00;99.90
16970;DHT22;8601;48.718;8.992;2022-08-25T06:22:34;18.00;99.90
16970;DHT22;8601;48.718;8.992;2022-08-25T06:25:04;18.10;99.90
16970;DHT22;8601;48.718;8.992;2022-08-25T06:27:31;18.10;99.90
16970;DHT22;8601;48.718;8.992;2022-08-25T06:29:58;18.20;99.90
16970;DHT22;8601;48.718;8.992;2022-08-25T06:32:29;18.20;99.90
16970;DHT22;8601;48.718;8.992;2022-08-25T06:34:56;18.30;99.90
16970;DHT22;8601;48.718;8.992;2022-08-25T06:37:24;18.40;99.90
16970;DHT22;8601;48.718;8.992;2022-08-25T06:39:51;18.40;99.90
16970;DHT22;8601;48.718;8.992;2022-08-25T06:42:19;18.50;99.90
16970;DHT22;8601;48.718;8.992;2022-08-25T06:44:46;18.60;99.90
16970;DHT22;8601;48.718;8.992;2022-08-25T06:47:14;18.70;99.90
16970;DHT22;8601;48.718;8.992;2022-08-25T06:49:42;18.80;99.90
16970;DHT22;8601;48.718;8.992;2022-08-25T06:52:10;19.00;99.90
16970;DHT22;8601;48.718;8.992;2022-08-25T06:54:37;19.00;99.90
16970;DHT22;8601;48.718;8.992;2022-08-25T06:57:06;19.20;99.90
16970;DHT22;8601;48.718;8.992;2022-08-25T06:59:35;19.20;99.90
16970;DHT22;8601;48.718;8.992;2022-08-25T07:02:04;19.30;99.90
16970;DHT22;8601;48.718;8.992;2022-08-25T07:04:33;19.40;99.90
16970;DHT22;8601;48.718;8.992;2022-08-25T07:07:00;19.50;99.90
16970;DHT22;8601;48.718;8.992;2022-08-25T07:09:27;19.60;99.90
16970;DHT22;8601;48.718;8.992;2022-08-25T07:11:54;19.60;99.90
16970;DHT22;8601;48.718;8.992;2022-08-25T07:14:21;19.70;99.90
16970;DHT22;8601;48.718;8.992;2022-08-25T07:16:50;19.80;99.90
16970;DHT22;8601;48.718;8.992;2022-08-25T07:19:17;19.90;99.90
16970;DHT22;8601;48.718;8.992;2022-08-25T07:21:45;20.00;99.90
16970;DHT22;8601;48.718;8.992;2022-08-25T07:24:13;20.10;99.90
16970;DHT22;8601;48.718;8.992;2022-08-25T07:26:41;20.10;99.90
16970;DHT22;8601;48.718;8.992;2022-08-25T07:29:13;20.30;99.90
16970;DHT22;8601;48.718;8.992;2022-08-25T07:31:40;20.40;99.90
16970;DHT22;8601;48.718;8.992;2022-08-25T07:34:09;20.50;99.90
16970;DHT22;8601;48.718;8.992;2022-08-25T07:36:54;20.60;99.90
16970;DHT22;8601;48.718;8.992;2022-08-25T07:39:21;20.70;99.90
16970;DHT22;8601;48.718;8.992;2022-08-25T07:41:48;20.80;99.90
16970;DHT22;8601;48.718;8.992;2022-08-25T07:44:15;21.10;99.90
16970;DHT22;8601;48.718;8.992;2022-08-25T07:46:43;21.20;99.90
16970;DHT22;8601;48.718;8.992;2022-08-25T07:49:11;21.40;99.90
16970;DHT22;8601;48.718;8.992;2022-08-25T07:51:38;21.50;99.90
16970;DHT22;8601;48.718;8.992;2022-08-25T07:54:06;21.50;99.90
16970;DHT22;8601;48.718;8.992;2022-08-25T07:56:33;21.60;99.90
16970;DHT22;8601;48.718;8.992;2022-08-25T07:59:00;21.70;99.90
16970;DHT22;8601;48.718;8.992;2022-08-25T08:01:27;21.80;99.90
16970;DHT22;8601;48.718;8.992;2022-08-25T08:03:54;21.90;99.90
16970;DHT22;8601;48.718;8.992;2022-08-25T08:06:24;22.00;99.90
16970;DHT22;8601;48.718;8.992;2022-08-25T08:08:52;22.00;99.90
16970;DHT22;8601;48.718;8.992;2022-08-25T08:11:22;22.20;99.90
16970;DHT22;8601;48.718;8.992;2022-08-25T08:13:50;22.40;99.90
16970;DHT22;8601;48.718;8.992;2022-08-25T08:16:20;22.70;98.80
16970;DHT22;8601;48.718;8.992;2022-08-25T08:18:47;22.70;98.50
16970;DHT22;8601;48.718;8.992;2022-08-25T08:21:17;22.80;97.50
16970;DHT22;8601;48.718;8.992;2022-08-25T08:23:47;22.90;97.20
16970;DHT22;8601;48.718;8.992;2022-08-25T08:26:14;22.90;96.90
16970;DHT22;8601;48.718;8.992;2022-08-25T08:28:41;22.90;96.70
16970;DHT22;8601;48.718;8.992;2022-08-25T08:31:08;23.10;95.90
16970;DHT22;8601;48.718;8.992;2022-08-25T08:33:35;23.10;95.60
16970;DHT22;8601;48.718;8.992;2022-08-25T08:36:05;23.30;95.10
16970;DHT22;8601;48.718;8.992;2022-08-25T08:38:34;23.30;95.30
16970;DHT22;8601;48.718;8.992;2022-08-25T08:41:43;23.40;95.30
16970;DHT22;8601;48.718;8.992;2022-08-25T08:44:37;23.40;95.30
16970;DHT22;8601;48.718;8.992;2022-08-25T08:47:12;23.60;94.20
16970;DHT22;8601;48.718;8.992;2022-08-25T08:49:48;23.80;93.10
16970;DHT22;8601;48.718;8.992;2022-08-25T08:52:23;23.90;92.20
16970;DHT22;8601;48.718;8.992;2022-08-25T08:55:01;24.00;91.60
16970;DHT22;8601;48.718;8.992;2022-08-25T08:57:34;24.10;91.60
16970;DHT22;8601;48.718;8.992;2022-08-25T09:00:07;24.20;92.20
16970;DHT22;8601;48.718;8.992;2022-08-25T09:02:37;24.40;90.20
16970;DHT22;8601;48.718;8.992;2022-08-25T09:05:10;24.60;90.70
16970;DHT22;8601;48.718;8.992;2022-08-25T09:07:47;24.90;90.30
16970;DHT22;8601;48.718;8.992;2022-08-25T09:10:17;25.10;87.70
16970;DHT22;8601;48.718;8.992;2022-08-25T09:12:53;25.50;85.10
16970;DHT22;8601;48.718;8.992;2022-08-25T09:15:32;25.80;81.10
16970;DHT22;8601;48.718;8.992;2022-08-25T09:18:19;25.80;80.30
16970;DHT22;8601;48.718;8.992;2022-08-25T09:20:58;26.00;81.20
16970;DHT22;8601;48.718;8.992;2022-08-25T09:23:35;26.10;82.50
16970;DHT22;8601;48.718;8.992;2022-08-25T09:26:17;26.30;80.50
16970;DHT22;8601;48.718;8.992;2022-08-25T09:28:50;26.70;78.20
16970;DHT22;8601;48.718;8.992;2022-08-25T09:31:22;26.90;74.90
16970;DHT22;8601;48.718;8.992;2022-08-25T09:33:54;26.90;76.30
16970;DHT22;8601;48.718;8.992;2022-08-25T09:36:21;27.20;74.60
16970;DHT22;8601;48.718;8.992;2022-08-25T09:38:49;27.30;73.70
16970;DHT22;8601;48.718;8.992;2022-08-25T09:44:01;27.60;71.40
16970;DHT22;8601;48.718;8.992;2022-08-25T09:46:29;27.80;71.60
16970;DHT22;8601;48.718;8.992;2022-08-25T09:48:57;27.80;67.70
16970;DHT22;8601;48.718;8.992;2022-08-25T09:51:37;27.90;68.10
16970;DHT22;8601;48.718;8.992;2022-08-25T09:54:17;27.90;65.10
16970;DHT22;8601;48.718;8.992;2022-08-25T09:56:49;28.10;66.40
16970;DHT22;8601;48.718;8.992;2022-08-25T09:59:24;28.40;66.20
16970;DHT22;8601;48.718;8.992;2022-08-25T10:01:53;28.60;64.30
16970;DHT22;8601;48.718;8.992;2022-08-25T10:04:24;28.70;65.70
16970;DHT22;8601;48.718;8.992;2022-08-25T10:06:52;28.80;64.70
16970;DHT22;8601;48.718;8.992;2022-08-25T10:09:26;28.60;62.00
16970;DHT22;8601;48.718;8.992;2022-08-25T10:11:55;28.70;62.60
16970;DHT22;8601;48.718;8.992;2022-08-25T10:14:31;28.80;60.70
16970;DHT22;8601;48.718;8.992;2022-08-25T10:17:13;29.10;60.30
16970;DHT22;8601;48.718;8.992;2022-08-25T10:19:42;29.00;59.70
16970;DHT22;8601;48.718;8.992;2022-08-25T10:22:11;29.10;58.30
16970;DHT22;8601;48.718;8.992;2022-08-25T10:24:46;28.90;58.60
16970;DHT22;8601;48.718;8.992;2022-08-25T10:27:21;29.20;58.80
16970;DHT22;8601;48.718;8.992;2022-08-25T10:30:12;29.30;59.10
16970;DHT22;8601;48.718;8.992;2022-08-25T10:33:02;29.60;58.20
16970;DHT22;8601;48.718;8.992;2022-08-25T10:35:41;29.80;57.30
16970;DHT22;8601;48.718;8.992;2022-08-25T10:38:22;29.90;58.80
16970;DHT22;8601;48.718;8.992;2022-08-25T10:40:57;30.00;58.90
16970;DHT22;8601;48.718;8.992;2022-08-25T10:43:31;30.00;57.20
16970;DHT22;8601;48.718;8.992;2022-08-25T10:46:05;30.00;57.10
16970;DHT22;8601;48.718;8.992;2022-08-25T10:48:52;30.20;57.60
16970;DHT22;8601;48.718;8.992;2022-08-25T10:51:43;30.10;55.40
16970;DHT22;8601;48.718;8.992;2022-08-25T10:54:31;30.20;55.30
16970;DHT22;8601;48.718;8.992;2022-08-25T10:57:07;30.40;56.80
16970;DHT22;8601;48.718;8.992;2022-08-25T10:59:51;30.40;55.20
16970;DHT22;8601;48.718;8.992;2022-08-25T11:03:03;30.60;55.80
16970;DHT22;8601;48.718;8.992;2022-08-25T11:05:40;30.80;54.90
16970;DHT22;8601;48.718;8.992;2022-08-25T11:08:11;30.50;54.40
16970;DHT22;8601;48.718;8.992;2022-08-25T11:10:43;30.40;55.10
16970;DHT22;8601;48.718;8.992;2022-08-25T11:13:16;30.50;55.20
16970;DHT22;8601;48.718;8.992;2022-08-25T11:15:51;30.80;54.70
16970;DHT22;8601;48.718;8.992;2022-08-25T11:18:22;30.90;54.30
16970;DHT22;8601;48.718;8.992;2022-08-25T11:21:00;30.60;55.20
16970;DHT22;8601;48.718;8.992;2022-08-25T11:23:32;30.10;55.10
16970;DHT22;8601;48.718;8.992;2022-08-25T11:26:05;30.10;55.00
16970;DHT22;8601;48.718;8.992;2022-08-25T11:28:39;30.10;54.40
16970;DHT22;8601;48.718;8.992;2022-08-25T11:31:09;30.00;54.80
16970;DHT22;8601;48.718;8.992;2022-08-25T11:33:38;30.00;54.80
16970;DHT22;8601;48.718;8.992;2022-08-25T11:36:11;29.50;55.70
16970;DHT22;8601;48.718;8.992;2022-08-25T11:38:52;29.30;56.50
16970;DHT22;8601;48.718;8.992;2022-08-25T11:41:28;29.00;56.00
16970;DHT22;8601;48.718;8.992;2022-08-25T11:44:12;28.90;56.40
16970;DHT22;8601;48.718;8.992;2022-08-25T11:46:51;28.70;57.30
16970;DHT22;8601;48.718;8.992;2022-08-25T11:49:38;28.50;57.00
16970;DHT22;8601;48.718;8.992;2022-08-25T11:52:43;28.40;57.50
16970;DHT22;8601;48.718;8.992;2022-08-25T11:55:13;28.90;56.40
16970;DHT22;8601;48.718;8.992;2022-08-25T11:57:42;29.30;54.40
16970;DHT22;8601;48.718;8.992;2022-08-25T12:00:37;29.20;55.50
16970;DHT22;8601;48.718;8.992;2022-08-25T12:02:59;29.00;56.10
16970;DHT22;8601;48.718;8.992;2022-08-25T12:05:52;29.10;55.80
16970;DHT22;8601;48.718;8.992;2022-08-25T12:08:50;29.30;55.00
16970;DHT22;8601;48.718;8.992;2022-08-25T12:11:41;29.30;54.80
16970;DHT22;8601;48.718;8.992;2022-08-25T12:14:15;29.80;53.80
16970;DHT22;8601;48.718;8.992;2022-08-25T12:16:59;29.70;54.10
16970;DHT22;8601;48.718;8.992;2022-08-25T12:19:49;30.00;53.40
16970;DHT22;8601;48.718;8.992;2022-08-25T12:22:40;30.10;52.50
16970;DHT22;8601;48.718;8.992;2022-08-25T12:25:30;30.50;53.60
16970;DHT22;8601;48.718;8.992;2022-08-25T12:28:04;30.50;52.30
16970;DHT22;8601;48.718;8.992;2022-08-25T12:30:42;30.60;52.80
16970;DHT22;8601;48.718;8.992;2022-08-25T12:33:20;30.40;51.80
16970;DHT22;8601;48.718;8.992;2022-08-25T12:35:54;30.50;52.00
16970;DHT22;8601;48.718;8.992;2022-08-25T12:38:30;30.50;51.80
16970;DHT22;8601;48.718;8.992;2022-08-25T12:41:01;30.50;51.90
16970;DHT22;8601;48.718;8.992;2022-08-25T12:43:32;30.80;52.40
16970;DHT22;8601;48.718;8.992;2022-08-25T12:46:34;31.00;51.40
16970;DHT22;8601;48.718;8.992;2022-08-25T12:49:03;31.10;51.30
16970;DHT22;8601;48.718;8.992;2022-08-25T12:51:51;31.30;50.30
16970;DHT22;8601;48.718;8.992;2022-08-25T12:54:24;31.30;50.20
16970;DHT22;8601;48.718;8.992;2022-08-25T12:56:56;31.00;49.90
16970;DHT22;8601;48.718;8.992;2022-08-25T12:59:32;31.00;50.40
16970;DHT22;8601;48.718;8.992;2022-08-25T13:02:25;30.90;49.30
16970;DHT22;8601;48.718;8.992;2022-08-25T13:05:16;30.90;50.70
16970;DHT22;8601;48.718;8.992;2022-08-25T13:07:57;30.90;50.60
16970;DHT22;8601;48.718;8.992;2022-08-25T13:10:38;31.10;49.90
16970;DHT22;8601;48.718;8.992;2022-08-25T13:13:11;31.10;50.50
16970;DHT22;8601;48.718;8.992;2022-08-25T13:15:44;31.10;50.50
16970;DHT22;8601;48.718;8.992;2022-08-25T13:18:20;31.20;50.00
16970;DHT22;8601;48.718;8.992;2022-08-25T13:20:50;31.40;49.30
16970;DHT22;8601;48.718;8.992;2022-08-25T13:23:24;31.30;49.10
16970;DHT22;8601;48.718;8.992;2022-08-25T13:25:55;31.30;49.60
16970;DHT22;8601;48.718;8.992;2022-08-25T13:28:26;31.10;50.70
16970;DHT22;8601;48.718;8.992;2022-08-25T13:31:13;30.60;49.70
16970;DHT22;8601;48.718;8.992;2022-08-25T13:33:49;30.20;50.40
16970;DHT22;8601;48.718;8.992;2022-08-25T13:36:17;30.30;52.00
16970;DHT22;8601;48.718;8.992;2022-08-25T13:39:11;30.60;50.20
16970;DHT22;8601;48.718;8.992;2022-08-25T13:41:45;30.90;50.90
16970;DHT22;8601;48.718;8.992;2022-08-25T13:44:14;31.10;50.00
16970;DHT22;8601;48.718;8.992;2022-08-25T13:46:42;30.80;50.30
16970;DHT22;8601;48.718;8.992;2022-08-25T13:49:10;31.10;49.20
16970;DHT22;8601;48.718;8.992;2022-08-25T13:51:39;31.40;49.60
16970;DHT22;8601;48.718;8.992;2022-08-25T13:54:24;31.30;48.70
16970;DHT22;8601;48.718;8.992;2022-08-25T13:57:04;30.90;49.80
16970;DHT22;8601;48.718;8.992;2022-08-25T13:59:35;30.30;50.60
16970;DHT22;8601;48.718;8.992;2022-08-25T14:02:05;30.00;51.90
16970;DHT22;8601;48.718;8.992;2022-08-25T14:04:46;29.80;52.10
16970;DHT22;8601;48.718;8.992;2022-08-25T14:07:29;29.70;51.40
16970;DHT22;8601;48.718;8.992;2022-08-25T14:09:59;29.70;52.30
16970;DHT22;8601;48.718;8.992;2022-08-25T14:12:31;29.60;53.60
16970;DHT22;8601;48.718;8.992;2022-08-25T14:15:01;29.80;52.60
16970;DHT22;8601;48.718;8.992;2022-08-25T14:17:28;29.90;52.70
16970;DHT22;8601;48.718;8.992;2022-08-25T14:19:55;30.00;52.40
16970;DHT22;8601;48.718;8.992;2022-08-25T14:22:23;30.30;52.00
16970;DHT22;8601;48.718;8.992;2022-08-25T14:24:51;30.20;51.50
16970;DHT22;8601;48.718;8.992;2022-08-25T14:27:18;30.10;51.40
16970;DHT22;8601;48.718;8.992;2022-08-25T14:29:47;29.90;52.30
16970;DHT22;8601;48.718;8.992;2022-08-25T14:32:15;29.90;52.00
16970;DHT22;8601;48.718;8.992;2022-08-25T14:34:42;30.00;51.60
16970;DHT22;8601;48.718;8.992;2022-08-25T14:37:12;30.10;51.90
16970;DHT22;8601;48.718;8.992;2022-08-25T14:39:39;30.20;51.90
16970;DHT22;8601;48.718;8.992;2022-08-25T14:42:07;30.30;51.30
16970;DHT22;8601;48.718;8.992;2022-08-25T14:44:34;30.30;51.20
16970;DHT22;8601;48.718;8.992;2022-08-25T14:47:04;30.50;50.70
16970;DHT22;8601;48.718;8.992;2022-08-25T14:49:35;30.60;50.20
16970;DHT22;8601;48.718;8.992;2022-08-25T14:52:07;30.60;51.00
16970;DHT22;8601;48.718;8.992;2022-08-25T14:54:35;30.80;50.80
16970;DHT22;8601;48.718;8.992;2022-08-25T14:57:02;30.80;50.40
16970;DHT22;8601;48.718;8.992;2022-08-25T14:59:29;30.80;49.80
16970;DHT22;8601;48.718;8.992;2022-08-25T15:01:57;30.80;49.50
16970;DHT22;8601;48.718;8.992;2022-08-25T15:04:27;30.40;50.20
16970;DHT22;8601;48.718;8.992;2022-08-25T15:06:59;30.10;50.70
16970;DHT22;8601;48.718;8.992;2022-08-25T15:09:47;30.20;51.40
16970;DHT22;8601;48.718;8.992;2022-08-25T15:12:13;30.00;50.50
16970;DHT22;8601;48.718;8.992;2022-08-25T15:14:40;29.90;50.90
16970;DHT22;8601;48.718;8.992;2022-08-25T15:17:17;30.10;51.10
16970;DHT22;8601;48.718;8.992;2022-08-25T15:19:45;30.20;50.30
16970;DHT22;8601;48.718;8.992;2022-08-25T15:22:12;30.20;51.20
16970;DHT22;8601;48.718;8.992;2022-08-25T15:24:39;30.20;51.50
16970;DHT22;8601;48.718;8.992;2022-08-25T15:27:06;30.10;51.40
16970;DHT22;8601;48.718;8.992;2022-08-25T15:29:34;30.00;51.30
16970;DHT22;8601;48.718;8.992;2022-08-25T15:32:04;30.10;50.50
16970;DHT22;8601;48.718;8.992;2022-08-25T15:34:31;30.10;50.00
16970;DHT22;8601;48.718;8.992;2022-08-25T15:37:08;30.10;50.70
16970;DHT22;8601;48.718;8.992;2022-08-25T15:39:36;30.30;51.20
16970;DHT22;8601;48.718;8.992;2022-08-25T15:46:57;30.30;49.80
16970;DHT22;8601;48.718;8.992;2022-08-25T15:49:26;30.30;51.50
16970;DHT22;8601;48.718;8.992;2022-08-25T15:52:01;30.20;50.40
16970;DHT22;8601;48.718;8.992;2022-08-25T15:54:54;30.20;50.00
16970;DHT22;8601;48.718;8.992;2022-08-25T15:57:21;30.10;49.70
16970;DHT22;8601;48.718;8.992;2022-08-25T15:59:48;29.80;50.10
16970;DHT22;8601;48.718;8.992;2022-08-25T16:02:18;29.60;51.40
16970;DHT22;8601;48.718;8.992;2022-08-25T16:04:45;29.60;51.00
16970;DHT22;8601;48.718;8.992;2022-08-25T16:07:12;29.60;51.90
16970;DHT22;8601;48.718;8.992;2022-08-25T16:09:39;29.70;51.70
16970;DHT22;8601;48.718;8.992;2022-08-25T16:12:07;29.70;51.70
16970;DHT22;8601;48.718;8.992;2022-08-25T16:14:34;29.70;51.50
16970;DHT22;8601;48.718;8.992;2022-08-25T16:17:01;29.80;51.70
16970;DHT22;8601;48.718;8.992;2022-08-25T16:19:29;29.80;51.30